Time;durP1;ratioP1;P1;durP2;ratioP2;P2;SDS_P1;SDS_P2;PMS_P1;PMS_P2;Temp;Humidity;BMP_temperature;BMP_pressure;BME280_temperature;BME280_humidity;BME280_pressure;Samples;Min_cycle;Max_cycle;Signal;HPM_P1;HPM_P2
2022/11/06 00:00:36;;;;;;;;;;;4.80;99.90;;;;;;5011402;28;20388;-74
2022/11/06 00:03:08;;;;;;;;;;;4.70;99.90;;;;;;4993157;28;19929;-74
2022/11/06 00:08:32;;;;;;;;;;;4.60;99.90;;;;;;4992823;28;19929;-75
2022/11/06 00:11:08;;;;;;;;;;;4.60;99.90;;;;;;4994649;28;19925;-73
2022/11/06 00:13:35;;;;;;;;;;;4.40;99.90;;;;;;4993445;28;20339;-74
2022/11/06 00:16:07;;;;;;;;;;;4.10;99.90;;;;;;5011622;28;19933;-72
2022/11/06 00:18:34;;;;;;;;;;;3.90;99.90;;;;;;4977591;28;21657;-72
2022/11/06 00:21:18;;;;;;;;;;;3.60;99.90;;;;;;4992301;28;19991;-74
2022/11/06 00:23:45;;;;;;;;;;;3.50;99.90;;;;;;4993578;28;19926;-71
2022/11/06 00:26:17;;;;;;;;;;;3.40;99.90;;;;;;5007024;28;19972;-72
2022/11/06 00:28:49;;;;;;;;;;;3.40;99.90;;;;;;5012101;28;19929;-72
2022/11/06 00:31:22;;;;;;;;;;;3.40;99.90;;;;;;4987129;28;19984;-72
2022/11/06 00:33:55;;;;;;;;;;;3.40;99.90;;;;;;4994266;28;20347;-74
2022/11/06 00:36:22;;;;;;;;;;;3.50;99.90;;;;;;4997162;28;19926;-73
2022/11/06 00:38:54;;;;;;;;;;;3.50;99.90;;;;;;4993758;28;20011;-75
2022/11/06 00:41:26;;;;;;;;;;;3.40;99.90;;;;;;5012065;28;19933;-71
2022/11/06 00:43:58;;;;;;;;;;;3.50;99.90;;;;;;4993192;28;19976;-73
2022/11/06 00:46:30;;;;;;;;;;;3.50;99.90;;;;;;4990031;28;20347;-73
2022/11/06 00:49:02;;;;;;;;;;;3.60;99.90;;;;;;4994155;28;19929;-72
2022/11/06 00:51:35;;;;;;;;;;;3.70;99.90;;;;;;4978654;28;20363;-74
2022/11/06 00:54:02;;;;;;;;;;;3.70;99.90;;;;;;4988018;28;20015;-72
2022/11/06 00:56:34;;;;;;;;;;;3.70;99.90;;;;;;5010447;28;19929;-73
2022/11/06 00:59:06;;;;;;;;;;;3.60;99.90;;;;;;5010651;28;20593;-81
2022/11/06 01:01:40;;;;;;;;;;;3.50;99.90;;;;;;5007600;28;20012;-74
2022/11/06 01:04:13;;;;;;;;;;;3.50;99.90;;;;;;4990277;28;19976;-73
2022/11/06 01:06:41;;;;;;;;;;;3.50;99.90;;;;;;4977534;28;19932;-74
2022/11/06 01:09:17;;;;;;;;;;;3.50;99.90;;;;;;4991755;28;19929;-74
2022/11/06 01:11:50;;;;;;;;;;;3.50;99.90;;;;;;4986366;28;19930;-74
2022/11/06 01:14:22;;;;;;;;;;;3.50;99.90;;;;;;4988729;28;19926;-75
2022/11/06 01:16:49;;;;;;;;;;;3.40;99.90;;;;;;4977434;28;19929;-74
2022/11/06 01:19:21;;;;;;;;;;;3.40;99.90;;;;;;4974174;28;19972;-74
2022/11/06 01:21:48;;;;;;;;;;;3.40;99.90;;;;;;4974985;28;19999;-74
2022/11/06 01:24:17;;;;;;;;;;;3.40;99.90;;;;;;4977434;28;19964;-72
2022/11/06 01:26:49;;;;;;;;;;;3.40;99.90;;;;;;4971163;28;19929;-74
2022/11/06 01:29:20;;;;;;;;;;;3.30;99.90;;;;;;5010664;28;20364;-74
2022/11/06 01:31:52;;;;;;;;;;;3.40;99.90;;;;;;4977554;28;19925;-74
2022/11/06 01:34:18;;;;;;;;;;;3.50;99.90;;;;;;4976956;28;19930;-74
2022/11/06 01:36:50;;;;;;;;;;;3.50;99.90;;;;;;4978040;28;20303;-74
2022/11/06 01:39:17;;;;;;;;;;;3.40;99.90;;;;;;5010893;28;19968;-73
2022/11/06 01:41:49;;;;;;;;;;;3.40;99.90;;;;;;4996095;28;19953;-74
2022/11/06 01:44:30;;;;;;;;;;;3.40;99.90;;;;;;4975926;28;19929;-74
2022/11/06 01:47:03;;;;;;;;;;;3.50;99.90;;;;;;5008963;28;19972;-74
2022/11/06 01:49:36;;;;;;;;;;;3.40;99.90;;;;;;4976463;28;19925;-74
2022/11/06 01:52:08;;;;;;;;;;;3.30;99.90;;;;;;4992796;28;19929;-73
2022/11/06 01:54:40;;;;;;;;;;;3.40;99.90;;;;;;5003849;28;19980;-74
2022/11/06 01:57:09;;;;;;;;;;;3.40;99.90;;;;;;4992581;28;20384;-74
2022/11/06 01:59:42;;;;;;;;;;;3.30;99.90;;;;;;4973483;28;19926;-73
2022/11/06 02:02:14;;;;;;;;;;;3.30;99.90;;;;;;4992637;28;19929;-75
2022/11/06 02:04:42;;;;;;;;;;;3.40;99.90;;;;;;5009662;28;19926;-73
2022/11/06 02:07:15;;;;;;;;;;;3.30;99.90;;;;;;4990945;28;19929;-75
2022/11/06 02:09:42;;;;;;;;;;;3.30;99.90;;;;;;4991684;28;19926;-74
2022/11/06 02:12:15;;;;;;;;;;;3.30;99.90;;;;;;4970641;28;19969;-74
2022/11/06 02:14:53;;;;;;;;;;;3.30;99.90;;;;;;4994284;28;19925;-73
2022/11/06 02:17:48;;;;;;;;;;;3.20;99.90;;;;;;4991388;28;20007;-75
2022/11/06 02:20:21;;;;;;;;;;;3.10;99.90;;;;;;5004243;28;20066;-73
2022/11/06 02:23:22;;;;;;;;;;;3.00;99.90;;;;;;5009211;28;20395;-74
2022/11/06 02:26:05;;;;;;;;;;;3.00;99.90;;;;;;5005173;28;20312;-74
2022/11/06 02:28:51;;;;;;;;;;;2.80;99.90;;;;;;5008511;28;19929;-75
2022/11/06 02:31:22;;;;;;;;;;;2.70;99.90;;;;;;4992553;28;19933;-73
2022/11/06 02:33:56;;;;;;;;;;;2.70;99.90;;;;;;4975216;28;19929;-74
2022/11/06 02:36:26;;;;;;;;;;;2.60;99.90;;;;;;4986786;28;19930;-74
2022/11/06 02:38:55;;;;;;;;;;;2.60;99.90;;;;;;4973291;28;19925;-74
2022/11/06 02:41:33;;;;;;;;;;;2.60;99.90;;;;;;4973943;28;19929;-73
2022/11/06 02:44:09;;;;;;;;;;;2.50;99.90;;;;;;4975602;28;19987;-74
2022/11/06 02:46:49;;;;;;;;;;;2.50;99.90;;;;;;4974519;28;19925;-73
2022/11/06 02:49:31;;;;;;;;;;;2.50;99.90;;;;;;5004672;28;19930;-74
2022/11/06 02:52:05;;;;;;;;;;;2.50;99.90;;;;;;4998800;28;19972;-74
2022/11/06 02:54:39;;;;;;;;;;;2.50;99.90;;;;;;5008066;28;19929;-75
2022/11/06 02:57:14;;;;;;;;;;;2.60;99.90;;;;;;5008835;28;20466;-74
2022/11/06 02:59:53;;;;;;;;;;;2.60;99.90;;;;;;4991776;28;19933;-74
2022/11/06 03:02:31;;;;;;;;;;;2.50;99.90;;;;;;4990509;28;19929;-74
2022/11/06 03:05:12;;;;;;;;;;;2.50;99.90;;;;;;4976405;28;19971;-74
2022/11/06 03:08:03;;;;;;;;;;;2.40;99.90;;;;;;5002927;28;19980;-74
2022/11/06 03:11:03;;;;;;;;;;;2.40;99.90;;;;;;5004628;28;19926;-74
2022/11/06 03:13:45;;;;;;;;;;;2.30;99.90;;;;;;4988188;28;19929;-75
2022/11/06 03:16:32;;;;;;;;;;;2.30;99.90;;;;;;4989679;28;20335;-74
2022/11/06 03:19:11;;;;;;;;;;;2.30;99.90;;;;;;4987796;28;19926;-74
2022/11/06 03:21:49;;;;;;;;;;;2.20;99.90;;;;;;4975581;28;19933;-73
2022/11/06 03:24:26;;;;;;;;;;;2.20;99.90;;;;;;4990482;28;19984;-74
2022/11/06 03:26:59;;;;;;;;;;;2.20;99.90;;;;;;4995608;28;19929;-73
2022/11/06 03:29:49;;;;;;;;;;;2.10;99.90;;;;;;4998752;28;19968;-74
2022/11/06 03:32:30;;;;;;;;;;;2.20;99.90;;;;;;4974475;28;19925;-73
2022/11/06 03:35:05;;;;;;;;;;;2.20;99.90;;;;;;5006168;28;20293;-73
2022/11/06 03:37:47;;;;;;;;;;;2.20;99.90;;;;;;4994901;28;19944;-74
2022/11/06 03:40:19;;;;;;;;;;;2.20;99.90;;;;;;5007041;28;19930;-73
2022/11/06 03:42:54;;;;;;;;;;;2.10;99.90;;;;;;5012734;28;20011;-73
2022/11/06 03:45:22;;;;;;;;;;;2.10;99.90;;;;;;4978605;28;19933;-72
2022/11/06 03:47:52;;;;;;;;;;;2.20;99.90;;;;;;4993685;28;19952;-73
2022/11/06 03:50:27;;;;;;;;;;;2.20;99.90;;;;;;5009381;28;19933;-74
2022/11/06 03:53:01;;;;;;;;;;;2.20;99.90;;;;;;5001145;28;19929;-72
2022/11/06 03:55:36;;;;;;;;;;;2.20;99.90;;;;;;4978850;28;19937;-73
2022/11/06 03:58:11;;;;;;;;;;;2.10;99.90;;;;;;5010183;28;19988;-74
2022/11/06 04:00:43;;;;;;;;;;;2.10;99.90;;;;;;4992872;28;19926;-72
2022/11/06 04:03:16;;;;;;;;;;;2.10;99.90;;;;;;4994748;28;19926;-73
2022/11/06 04:05:54;;;;;;;;;;;2.10;99.90;;;;;;4978622;28;20028;-73
2022/11/06 04:14:11;;;;;;;;;;;2.10;99.90;;;;;;4994270;28;19984;-74
2022/11/06 04:16:49;;;;;;;;;;;2.10;99.90;;;;;;4992697;28;19980;-74
2022/11/06 04:19:21;;;;;;;;;;;2.10;99.90;;;;;;4994276;28;19926;-75
2022/11/06 04:21:54;;;;;;;;;;;2.10;99.90;;;;;;4989335;28;19949;-74
2022/11/06 04:27:46;;;;;;;;;;;2.10;99.90;;;;;;4990056;28;20164;-74
2022/11/06 04:30:18;;;;;;;;;;;2.10;99.90;;;;;;5012192;28;20000;-72
2022/11/06 04:32:55;;;;;;;;;;;2.00;99.90;;;;;;4978616;28;19929;-74
2022/11/06 04:35:34;;;;;;;;;;;2.00;99.90;;;;;;5011997;28;20606;-72
2022/11/06 04:38:04;;;;;;;;;;;2.00;99.90;;;;;;4993158;28;20041;-74
2022/11/06 04:40:30;;;;;;;;;;;2.00;99.90;;;;;;4994822;28;19936;-73
2022/11/06 04:43:10;;;;;;;;;;;1.90;99.90;;;;;;4979081;28;19945;-72
2022/11/06 04:45:45;;;;;;;;;;;1.90;99.90;;;;;;4995172;28;19930;-74
2022/11/06 04:48:12;;;;;;;;;;;1.90;99.90;;;;;;4993438;28;19976;-74
2022/11/06 04:50:46;;;;;;;;;;;1.90;99.90;;;;;;4990953;28;19925;-74
2022/11/06 04:53:18;;;;;;;;;;;1.90;99.90;;;;;;4978799;28;19925;-73
2022/11/06 04:55:51;;;;;;;;;;;1.90;99.90;;;;;;4992214;28;19933;-73
2022/11/06 04:58:17;;;;;;;;;;;1.80;99.90;;;;;;5011604;28;19925;-74
2022/11/06 05:00:49;;;;;;;;;;;1.70;99.90;;;;;;4993661;28;19929;-74
2022/11/06 05:03:17;;;;;;;;;;;1.70;99.90;;;;;;4975443;28;19948;-73
2022/11/06 05:05:49;;;;;;;;;;;1.70;99.90;;;;;;4976617;28;20403;-74
2022/11/06 05:08:20;;;;;;;;;;;1.60;99.90;;;;;;4992670;28;20438;-73
2022/11/06 05:10:52;;;;;;;;;;;1.60;99.90;;;;;;4976622;28;20391;-75
2022/11/06 05:13:23;;;;;;;;;;;1.50;99.90;;;;;;4993723;28;19926;-74
2022/11/06 05:15:54;;;;;;;;;;;1.50;99.90;;;;;;4994119;28;20430;-77
2022/11/06 05:18:26;;;;;;;;;;;1.50;99.90;;;;;;5010128;28;20347;-73
2022/11/06 05:22:56;;;;;;;;;;;1.60;99.90;;;;;;4993499;28;19964;-74
2022/11/06 05:23:39;;;;;;;;;;;1.50;99.90;;;;;;5010912;28;19930;-74
2022/11/06 05:26:11;;;;;;;;;;;1.50;99.90;;;;;;4993457;28;19925;-74
2022/11/06 05:28:43;;;;;;;;;;;1.50;99.90;;;;;;4985217;28;19976;-74
2022/11/06 05:31:14;;;;;;;;;;;1.30;99.90;;;;;;4992908;28;19929;-73
2022/11/06 05:33:46;;;;;;;;;;;1.20;99.90;;;;;;4994421;28;19929;-73
2022/11/06 05:36:17;;;;;;;;;;;1.20;99.90;;;;;;4993766;28;19926;-75
2022/11/06 05:38:49;;;;;;;;;;;1.20;99.90;;;;;;5011078;28;19981;-75
2022/11/06 05:41:16;;;;;;;;;;;1.10;99.90;;;;;;4992390;28;19935;-74
2022/11/06 05:43:47;;;;;;;;;;;1.10;99.90;;;;;;4993764;28;19926;-74
2022/11/06 05:46:14;;;;;;;;;;;1.00;99.90;;;;;;4987976;28;19984;-74
2022/11/06 05:48:46;;;;;;;;;;;1.00;99.90;;;;;;4991491;28;20335;-74
2022/11/06 05:51:18;;;;;;;;;;;1.00;99.90;;;;;;4992892;28;19936;-74
2022/11/06 05:53:50;;;;;;;;;;;0.90;99.90;;;;;;4977508;28;20395;-74
2022/11/06 05:56:21;;;;;;;;;;;0.90;99.90;;;;;;5010057;28;20455;-73
2022/11/06 05:58:53;;;;;;;;;;;0.90;99.90;;;;;;4992734;28;19951;-74
2022/11/06 06:01:25;;;;;;;;;;;0.80;99.90;;;;;;4991591;28;19929;-73
2022/11/06 06:03:51;;;;;;;;;;;0.80;99.90;;;;;;4990869;28;19929;-74
2022/11/06 06:06:23;;;;;;;;;;;0.80;99.90;;;;;;4989660;28;19944;-74
2022/11/06 06:08:54;;;;;;;;;;;0.80;99.90;;;;;;4977815;28;19925;-74
2022/11/06 06:11:26;;;;;;;;;;;0.80;99.90;;;;;;4977376;28;19925;-75
2022/11/06 06:13:59;;;;;;;;;;;0.80;99.90;;;;;;4977139;28;19926;-73
2022/11/06 06:16:25;;;;;;;;;;;0.80;99.90;;;;;;4987671;28;19925;-74
2022/11/06 06:18:57;;;;;;;;;;;0.90;99.90;;;;;;4982829;28;19975;-74
2022/11/06 06:21:23;;;;;;;;;;;0.90;99.90;;;;;;4993129;28;19926;-74
2022/11/06 06:23:55;;;;;;;;;;;0.80;99.90;;;;;;4977871;28;19930;-76
2022/11/06 06:26:26;;;;;;;;;;;0.80;99.90;;;;;;4975296;28;19976;-75
2022/11/06 06:28:53;;;;;;;;;;;0.70;99.90;;;;;;4992347;28;19987;-73
2022/11/06 06:31:20;;;;;;;;;;;0.70;99.90;;;;;;4976128;28;19930;-74
2022/11/06 06:33:55;;;;;;;;;;;0.70;99.90;;;;;;5010763;28;19925;-72
2022/11/06 06:36:26;;;;;;;;;;;0.60;99.90;;;;;;4975552;28;19926;-75
2022/11/06 06:38:58;;;;;;;;;;;0.60;99.90;;;;;;4976729;28;19979;-73
2022/11/06 06:41:32;;;;;;;;;;;0.60;99.90;;;;;;4974636;28;20336;-75
2022/11/06 06:44:04;;;;;;;;;;;0.60;99.90;;;;;;4991054;28;19957;-74
2022/11/06 06:46:36;;;;;;;;;;;0.60;99.90;;;;;;4991770;28;19980;-72
2022/11/06 06:49:07;;;;;;;;;;;0.60;99.90;;;;;;5000625;28;20658;-73
2022/11/06 06:51:39;;;;;;;;;;;0.60;99.90;;;;;;5009358;28;19925;-72
2022/11/06 06:54:10;;;;;;;;;;;0.60;99.90;;;;;;4989840;28;19933;-75
2022/11/06 06:56:42;;;;;;;;;;;0.60;99.90;;;;;;4989930;28;19925;-73
2022/11/06 06:59:09;;;;;;;;;;;0.60;99.90;;;;;;4974981;28;19926;-74
2022/11/06 07:01:40;;;;;;;;;;;0.50;99.90;;;;;;4974475;28;19936;-73
2022/11/06 07:04:08;;;;;;;;;;;0.50;99.90;;;;;;4990426;28;19930;-73
2022/11/06 07:06:34;;;;;;;;;;;0.60;99.90;;;;;;4989367;28;19972;-73
2022/11/06 07:09:06;;;;;;;;;;;0.60;99.90;;;;;;4973818;28;19929;-74
2022/11/06 07:11:37;;;;;;;;;;;0.60;99.90;;;;;;4990543;28;20340;-74
2022/11/06 07:14:09;;;;;;;;;;;0.60;99.90;;;;;;5007698;28;20347;-73
2022/11/06 07:16:36;;;;;;;;;;;0.60;99.90;;;;;;5004728;28;19976;-74
2022/11/06 07:19:07;;;;;;;;;;;0.70;99.90;;;;;;4975704;28;19955;-74
2022/11/06 07:21:39;;;;;;;;;;;0.70;99.90;;;;;;5006826;28;19930;-73
2022/11/06 07:24:10;;;;;;;;;;;0.70;99.90;;;;;;4958188;28;19929;-75
2022/11/06 07:26:42;;;;;;;;;;;0.70;99.90;;;;;;4973166;28;19980;-74
2022/11/06 07:29:14;;;;;;;;;;;0.70;99.90;;;;;;4973100;28;19926;-75
2022/11/06 07:31:45;;;;;;;;;;;0.70;99.90;;;;;;4968001;28;20485;-75
2022/11/06 07:34:17;;;;;;;;;;;0.80;99.90;;;;;;5002163;28;20408;-74
2022/11/06 07:36:48;;;;;;;;;;;0.90;99.90;;;;;;4988445;28;19930;-70
2022/11/06 07:39:20;;;;;;;;;;;1.00;99.90;;;;;;4974363;28;19941;-74
2022/11/06 07:41:46;;;;;;;;;;;1.10;99.90;;;;;;4987122;28;19976;-75
2022/11/06 07:44:18;;;;;;;;;;;1.10;99.90;;;;;;5003063;28;19983;-74
2022/11/06 07:46:50;;;;;;;;;;;1.10;99.90;;;;;;4987767;28;19929;-76
2022/11/06 07:49:21;;;;;;;;;;;1.20;99.90;;;;;;4987969;28;19980;-75
2022/11/06 07:51:53;;;;;;;;;;;1.20;99.90;;;;;;4974135;28;19959;-76
2022/11/06 07:54:24;;;;;;;;;;;1.30;99.90;;;;;;4985861;28;19987;-74
2022/11/06 07:56:56;;;;;;;;;;;1.30;99.90;;;;;;4973074;28;19929;-74
2022/11/06 07:59:28;;;;;;;;;;;1.40;99.90;;;;;;4988828;28;20439;-76
2022/11/06 08:01:59;;;;;;;;;;;1.50;99.90;;;;;;4987703;28;19926;-75
2022/11/06 08:04:26;;;;;;;;;;;1.60;99.90;;;;;;4973106;28;19931;-73
2022/11/06 08:06:52;;;;;;;;;;;1.60;99.90;;;;;;5004568;28;19926;-76
2022/11/06 08:09:19;;;;;;;;;;;1.70;99.90;;;;;;4984459;28;20450;-75
2022/11/06 08:11:50;;;;;;;;;;;1.80;99.90;;;;;;4968207;28;20035;-71
2022/11/06 08:14:22;;;;;;;;;;;2.00;99.90;;;;;;5001057;28;19933;-75
2022/11/06 08:16:54;;;;;;;;;;;2.60;99.90;;;;;;4976277;28;19929;-74
2022/11/06 08:19:26;;;;;;;;;;;3.10;99.90;;;;;;4976733;28;20382;-74
2022/11/06 08:21:57;;;;;;;;;;;3.20;99.90;;;;;;5009808;28;19933;-73
2022/11/06 08:24:24;;;;;;;;;;;3.10;99.90;;;;;;4991506;28;19968;-74
2022/11/06 08:26:50;;;;;;;;;;;3.10;99.90;;;;;;5009325;28;19925;-74
2022/11/06 08:29:17;;;;;;;;;;;3.00;99.90;;;;;;5007442;28;19929;-72
2022/11/06 08:31:43;;;;;;;;;;;3.00;99.90;;;;;;4992937;28;19929;-77
2022/11/06 08:34:15;;;;;;;;;;;2.90;99.90;;;;;;4991263;28;19937;-75
2022/11/06 08:36:51;;;;;;;;;;;2.90;99.90;;;;;;4977483;28;20343;-75
2022/11/06 08:39:22;;;;;;;;;;;2.80;99.90;;;;;;4978062;28;19968;-71
2022/11/06 08:41:54;;;;;;;;;;;2.90;99.90;;;;;;4980398;28;21309;-73
2022/11/06 08:44:25;;;;;;;;;;;3.00;99.90;;;;;;4994468;28;19926;-75
2022/11/06 08:46:52;;;;;;;;;;;3.00;99.90;;;;;;4991792;28;19930;-75
2022/11/06 08:49:19;;;;;;;;;;;3.10;99.90;;;;;;4988810;28;19929;-75
2022/11/06 08:51:50;;;;;;;;;;;3.10;99.90;;;;;;4988384;28;19933;-74
2022/11/06 08:54:22;;;;;;;;;;;3.10;99.90;;;;;;4990410;28;19988;-75
2022/11/06 08:56:48;;;;;;;;;;;3.20;99.90;;;;;;4976951;28;20465;-75
2022/11/06 08:59:20;;;;;;;;;;;3.30;99.90;;;;;;4982761;28;19934;-74
2022/11/06 09:01:46;;;;;;;;;;;3.40;99.90;;;;;;5011051;28;19926;-75
2022/11/06 09:04:18;;;;;;;;;;;3.50;99.90;;;;;;4994275;28;19980;-77
2022/11/06 09:06:50;;;;;;;;;;;3.60;99.90;;;;;;4977372;28;20438;-75
2022/11/06 09:09:16;;;;;;;;;;;3.70;99.90;;;;;;4991812;28;19934;-75
2022/11/06 09:11:48;;;;;;;;;;;3.70;99.90;;;;;;5008094;28;19979;-76
2022/11/06 09:14:14;;;;;;;;;;;3.80;99.90;;;;;;5010846;28;20450;-75
2022/11/06 09:16:46;;;;;;;;;;;3.90;99.90;;;;;;4975739;28;20346;-75
2022/11/06 09:19:17;;;;;;;;;;;3.90;99.90;;;;;;4993811;28;19925;-74
2022/11/06 09:21:49;;;;;;;;;;;4.00;99.90;;;;;;4975328;28;19980;-75
2022/11/06 09:24:21;;;;;;;;;;;4.10;99.90;;;;;;4989211;28;19976;-74
2022/11/06 09:26:47;;;;;;;;;;;4.20;99.90;;;;;;4988569;28;20396;-74
2022/11/06 09:29:19;;;;;;;;;;;4.40;99.90;;;;;;4989776;28;20347;-73
2022/11/06 09:31:45;;;;;;;;;;;4.50;99.90;;;;;;4993034;28;20403;-74
2022/11/06 09:34:17;;;;;;;;;;;4.70;99.90;;;;;;4992871;28;19969;-74
2022/11/06 09:36:43;;;;;;;;;;;4.90;99.90;;;;;;4992149;28;20323;-75
2022/11/06 09:39:15;;;;;;;;;;;5.10;99.90;;;;;;4992736;28;19925;-73
2022/11/06 09:41:53;;;;;;;;;;;5.30;99.90;;;;;;4993672;28;19925;-73
2022/11/06 09:44:25;;;;;;;;;;;5.40;99.90;;;;;;4976761;28;20023;-74
2022/11/06 09:46:52;;;;;;;;;;;5.50;99.90;;;;;;4992552;28;19999;-72
2022/11/06 09:49:42;;;;;;;;;;;5.60;99.90;;;;;;4976672;28;20418;-73
2022/11/06 09:52:21;;;;;;;;;;;5.80;99.90;;;;;;4997378;28;20384;-72
2022/11/06 09:55:19;;;;;;;;;;;5.90;99.90;;;;;;4991975;28;19930;-73
2022/11/06 09:57:54;;;;;;;;;;;6.00;99.90;;;;;;4975614;28;19933;-75
2022/11/06 10:00:26;;;;;;;;;;;6.00;99.90;;;;;;4976364;28;19979;-74
2022/11/06 10:03:09;;;;;;;;;;;6.00;99.90;;;;;;4988326;28;19977;-75
2022/11/06 10:05:36;;;;;;;;;;;6.00;99.90;;;;;;5009954;28;19937;-75
2022/11/06 10:08:13;;;;;;;;;;;6.10;99.90;;;;;;4992074;28;19956;-73
2022/11/06 10:10:45;;;;;;;;;;;6.10;99.90;;;;;;4989488;28;19925;-73
2022/11/06 10:13:23;;;;;;;;;;;6.00;99.90;;;;;;4990253;28;20589;-75
2022/11/06 10:15:57;;;;;;;;;;;6.00;99.90;;;;;;4976779;28;19926;-74
2022/11/06 10:18:32;;;;;;;;;;;6.00;99.90;;;;;;4976858;28;19925;-73
2022/11/06 10:21:04;;;;;;;;;;;6.10;99.90;;;;;;4991170;28;19929;-73
2022/11/06 10:24:01;;;;;;;;;;;6.10;99.90;;;;;;5007255;28;19929;-74
2022/11/06 10:26:38;;;;;;;;;;;6.20;99.90;;;;;;4989046;28;20392;-74
2022/11/06 10:29:15;;;;;;;;;;;6.30;99.90;;;;;;4992080;28;20003;-74
2022/11/06 10:31:57;;;;;;;;;;;6.30;99.90;;;;;;4975630;28;19972;-77
2022/11/06 10:34:28;;;;;;;;;;;6.30;99.90;;;;;;4975343;28;19929;-74
2022/11/06 10:37:04;;;;;;;;;;;6.40;99.90;;;;;;4975979;28;19996;-75
2022/11/06 10:39:36;;;;;;;;;;;6.60;99.90;;;;;;4973612;28;19933;-74
2022/11/06 10:42:14;;;;;;;;;;;6.60;99.90;;;;;;4989923;28;19929;-73
2022/11/06 10:44:54;;;;;;;;;;;6.70;99.90;;;;;;5006224;28;19930;-75
2022/11/06 10:47:31;;;;;;;;;;;6.90;99.90;;;;;;4984663;28;20446;-74
2022/11/06 10:49:59;;;;;;;;;;;6.90;99.90;;;;;;4975921;28;20346;-74
2022/11/06 10:52:45;;;;;;;;;;;7.00;99.90;;;;;;4991759;28;20408;-75
2022/11/06 10:55:29;;;;;;;;;;;7.00;99.90;;;;;;4990567;28;20015;-75
2022/11/06 10:58:03;;;;;;;;;;;7.10;99.90;;;;;;4990872;28;19930;-76
2022/11/06 11:00:34;;;;;;;;;;;7.20;99.90;;;;;;4975249;28;19938;-72
2022/11/06 11:03:18;;;;;;;;;;;7.30;99.90;;;;;;5009325;28;19929;-76
2022/11/06 11:05:49;;;;;;;;;;;7.50;99.90;;;;;;4975925;28;19925;-76
2022/11/06 11:08:31;;;;;;;;;;;7.60;99.90;;;;;;4975022;28;19979;-75
2022/11/06 11:11:24;;;;;;;;;;;7.80;99.90;;;;;;4991866;28;19932;-73
2022/11/06 11:13:55;;;;;;;;;;;8.00;99.90;;;;;;4985646;28;19947;-74
2022/11/06 11:16:23;;;;;;;;;;;8.30;99.90;;;;;;4982727;28;19925;-75
2022/11/06 11:19:12;;;;;;;;;;;8.40;99.90;;;;;;4988928;28;19960;-76
2022/11/06 11:21:55;;;;;;;;;;;8.50;99.90;;;;;;4989038;28;19980;-74
2022/11/06 11:24:21;;;;;;;;;;;8.70;99.90;;;;;;4988013;28;19929;-75
2022/11/06 11:26:54;;;;;;;;;;;8.80;99.90;;;;;;5007382;28;19925;-74
2022/11/06 11:29:27;;;;;;;;;;;8.90;99.90;;;;;;5005325;28;20273;-74
2022/11/06 11:32:00;;;;;;;;;;;8.90;99.90;;;;;;4984519;28;20024;-75
2022/11/06 11:34:36;;;;;;;;;;;9.00;99.90;;;;;;5006539;28;19980;-74
2022/11/06 11:37:05;;;;;;;;;;;9.10;99.90;;;;;;4989225;28;19933;-76
2022/11/06 11:39:43;;;;;;;;;;;9.10;99.90;;;;;;4966778;28;20454;-74
2022/11/06 11:42:15;;;;;;;;;;;9.10;99.90;;;;;;5004978;28;19926;-74
2022/11/06 11:44:46;;;;;;;;;;;9.30;99.90;;;;;;4991487;28;20343;-75
2022/11/06 11:47:19;;;;;;;;;;;9.30;99.90;;;;;;5011080;28;19925;-75
2022/11/06 11:49:51;;;;;;;;;;;9.30;99.90;;;;;;4993066;28;19926;-74
2022/11/06 11:52:23;;;;;;;;;;;9.30;99.90;;;;;;4977024;28;19949;-72
2022/11/06 11:54:52;;;;;;;;;;;9.30;99.90;;;;;;5010269;28;19940;-77
2022/11/06 11:57:20;;;;;;;;;;;9.40;99.90;;;;;;4974419;28;19936;-73
2022/11/06 11:59:55;;;;;;;;;;;9.40;99.90;;;;;;4988484;28;19925;-75
2022/11/06 12:02:29;;;;;;;;;;;9.50;99.90;;;;;;4974249;28;19939;-75
2022/11/06 12:05:02;;;;;;;;;;;9.50;99.90;;;;;;4990346;28;19930;-75
2022/11/06 12:07:36;;;;;;;;;;;9.60;99.90;;;;;;4972553;28;19925;-74
2022/11/06 12:10:26;;;;;;;;;;;9.70;99.90;;;;;;5006393;28;20404;-74
2022/11/06 12:12:54;;;;;;;;;;;9.80;99.90;;;;;;4994316;28;19930;-75
2022/11/06 12:15:44;;;;;;;;;;;9.90;99.90;;;;;;4994624;28;19993;-73
2022/11/06 12:18:18;;;;;;;;;;;9.80;99.90;;;;;;4994162;28;19933;-72
2022/11/06 12:20:53;;;;;;;;;;;9.90;99.90;;;;;;4991953;28;19926;-74
2022/11/06 12:23:28;;;;;;;;;;;10.00;99.90;;;;;;5010618;28;19925;-75
2022/11/06 12:26:05;;;;;;;;;;;9.90;99.90;;;;;;5006526;28;19937;-75
2022/11/06 12:28:39;;;;;;;;;;;9.90;99.90;;;;;;4993037;28;19926;-75
2022/11/06 12:31:30;;;;;;;;;;;9.90;99.90;;;;;;4977236;28;19955;-75
2022/11/06 12:34:04;;;;;;;;;;;9.90;99.90;;;;;;4976602;28;19937;-75
2022/11/06 12:36:38;;;;;;;;;;;10.00;99.90;;;;;;5000094;28;19925;-74
2022/11/06 12:39:10;;;;;;;;;;;10.10;99.90;;;;;;5009400;28;20339;-74
2022/11/06 12:41:39;;;;;;;;;;;10.20;99.90;;;;;;5015743;28;19925;-74
2022/11/06 12:44:11;;;;;;;;;;;10.20;99.90;;;;;;4994608;28;19980;-74
2022/11/06 12:46:42;;;;;;;;;;;10.40;99.90;;;;;;5002016;28;19956;-72
2022/11/06 12:49:33;;;;;;;;;;;10.50;99.90;;;;;;4994987;28;19932;-72
2022/11/06 12:52:08;;;;;;;;;;;10.60;99.90;;;;;;5011387;28;19929;-72
2022/11/06 12:54:58;;;;;;;;;;;10.60;99.90;;;;;;4990898;28;19984;-73
2022/11/06 12:57:39;;;;;;;;;;;10.60;99.90;;;;;;5012865;28;19925;-71
2022/11/06 13:00:13;;;;;;;;;;;10.60;99.90;;;;;;4988001;28;20533;-72
2022/11/06 13:02:58;;;;;;;;;;;10.70;99.90;;;;;;5005875;28;19952;-72
2022/11/06 13:05:39;;;;;;;;;;;10.70;99.90;;;;;;4990694;28;19979;-72
2022/11/06 13:08:25;;;;;;;;;;;10.70;99.90;;;;;;5009059;28;19983;-74
2022/11/06 13:11:05;;;;;;;;;;;10.80;99.90;;;;;;5001790;28;20303;-72
2022/11/06 13:14:06;;;;;;;;;;;10.80;99.90;;;;;;4992906;28;20462;-72
2022/11/06 13:16:42;;;;;;;;;;;10.80;99.90;;;;;;4971666;28;19976;-74
2022/11/06 13:19:26;;;;;;;;;;;10.90;99.90;;;;;;4993206;28;19992;-72
2022/11/06 13:22:16;;;;;;;;;;;10.90;99.90;;;;;;4979296;28;19932;-73
2022/11/06 13:24:57;;;;;;;;;;;10.90;99.90;;;;;;4985343;28;19930;-73
2022/11/06 13:27:28;;;;;;;;;;;10.90;99.90;;;;;;5007752;28;19975;-74
2022/11/06 13:30:09;;;;;;;;;;;10.90;99.90;;;;;;4995670;28;19979;-74
2022/11/06 13:32:44;;;;;;;;;;;10.90;99.90;;;;;;4994421;28;19979;-74
2022/11/06 13:35:16;;;;;;;;;;;10.90;99.90;;;;;;5013079;28;20008;-72
2022/11/06 13:37:45;;;;;;;;;;;10.90;99.90;;;;;;5010435;28;20347;-73
2022/11/06 13:40:16;;;;;;;;;;;11.00;99.90;;;;;;4993935;28;19926;-73
2022/11/06 13:42:58;;;;;;;;;;;11.00;99.90;;;;;;4994378;28;19925;-73
2022/11/06 13:45:35;;;;;;;;;;;11.00;99.90;;;;;;4993735;28;19930;-74
2022/11/06 13:48:30;;;;;;;;;;;11.00;99.90;;;;;;5010885;28;20335;-72
2022/11/06 13:51:02;;;;;;;;;;;11.00;99.90;;;;;;4994093;28;19941;-74
2022/11/06 13:53:36;;;;;;;;;;;11.00;99.90;;;;;;5010553;28;19965;-72
2022/11/06 13:56:03;;;;;;;;;;;11.00;99.90;;;;;;4991520;28;19972;-75
2022/11/06 13:58:56;;;;;;;;;;;11.00;99.90;;;;;;5009089;28;19972;-73
2022/11/06 14:01:35;;;;;;;;;;;11.00;99.90;;;;;;5006600;28;19936;-72
2022/11/06 14:04:30;;;;;;;;;;;11.10;99.90;;;;;;4985181;28;19933;-73
2022/11/06 14:07:03;;;;;;;;;;;11.10;99.90;;;;;;5001783;28;19987;-74
2022/11/06 14:09:35;;;;;;;;;;;11.20;99.90;;;;;;4976026;28;19925;-73
2022/11/06 14:12:07;;;;;;;;;;;11.20;99.90;;;;;;4999865;28;19956;-73
2022/11/06 14:14:39;;;;;;;;;;;11.10;99.90;;;;;;4991642;28;19952;-71
2022/11/06 14:17:16;;;;;;;;;;;11.10;99.90;;;;;;4991610;28;19926;-73
2022/11/06 14:19:48;;;;;;;;;;;11.10;99.90;;;;;;5005257;28;19975;-74
2022/11/06 14:22:25;;;;;;;;;;;11.00;99.90;;;;;;4991024;28;20277;-73
2022/11/06 14:24:57;;;;;;;;;;;11.00;99.90;;;;;;4991889;28;19996;-74
2022/11/06 14:27:29;;;;;;;;;;;10.90;99.90;;;;;;5008654;28;19929;-73
2022/11/06 14:30:05;;;;;;;;;;;10.90;99.90;;;;;;4991015;28;20403;-73
2022/11/06 14:32:40;;;;;;;;;;;10.90;99.90;;;;;;4992062;28;20407;-73
2022/11/06 14:35:25;;;;;;;;;;;10.80;99.90;;;;;;4984841;28;19984;-75
2022/11/06 14:38:09;;;;;;;;;;;10.70;99.90;;;;;;4980622;28;19929;-73
2022/11/06 14:40:40;;;;;;;;;;;10.40;99.90;;;;;;4992376;28;19980;-74
2022/11/06 14:43:18;;;;;;;;;;;10.30;99.90;;;;;;4993784;28;19925;-73
2022/11/06 14:45:52;;;;;;;;;;;10.30;99.90;;;;;;4992539;28;19926;-74
2022/11/06 14:48:44;;;;;;;;;;;10.20;99.90;;;;;;5001348;28;19933;-73
2022/11/06 14:51:23;;;;;;;;;;;10.20;99.90;;;;;;5010476;28;19925;-73
2022/11/06 14:53:55;;;;;;;;;;;10.10;99.90;;;;;;5007443;28;19925;-74
2022/11/06 14:56:31;;;;;;;;;;;10.00;99.90;;;;;;4992242;28;19984;-73
2022/11/06 14:59:06;;;;;;;;;;;9.80;99.90;;;;;;5008549;28;19930;-75
2022/11/06 15:01:33;;;;;;;;;;;9.80;99.90;;;;;;5010408;28;19934;-73
2022/11/06 15:04:14;;;;;;;;;;;9.90;99.90;;;;;;5008880;28;19930;-74
2022/11/06 15:06:49;;;;;;;;;;;9.80;99.90;;;;;;5007508;28;19987;-73
2022/11/06 15:09:24;;;;;;;;;;;9.50;99.90;;;;;;4991325;28;19996;-72
2022/11/06 15:12:04;;;;;;;;;;;9.50;99.90;;;;;;4989997;28;19961;-73
2022/11/06 15:14:30;;;;;;;;;;;9.60;99.90;;;;;;5005742;28;21977;-75
2022/11/06 15:17:02;;;;;;;;;;;9.50;99.90;;;;;;5007575;28;19925;-72
2022/11/06 15:19:38;;;;;;;;;;;9.40;99.90;;;;;;4986883;28;19933;-72